createdAt,value
2017-11-23T00:02:25.555Z,33.27
2017-11-23T00:04:53.835Z,25.23
2017-11-23T00:07:22.064Z,23.60
2017-11-23T00:09:50.802Z,26.40
2017-11-23T00:12:19.054Z,21.03
2017-11-23T00:14:47.299Z,25.47
2017-11-23T00:17:15.573Z,20.53
2017-11-23T00:19:43.826Z,30.27
2017-11-23T00:22:12.078Z,22.87
2017-11-23T00:24:40.343Z,20.50
2017-11-23T00:27:08.591Z,29.20
2017-11-23T00:29:36.831Z,17.97
2017-11-23T00:32:06.209Z,17.53
2017-11-23T00:34:34.820Z,23.30
2017-11-23T00:37:03.823Z,18.37
2017-11-23T00:39:32.856Z,19.30
2017-11-23T00:42:01.099Z,19.50
2017-11-23T00:44:29.342Z,20.57
2017-11-23T00:46:57.611Z,19.47
2017-11-23T00:49:25.856Z,21.10
2017-11-23T00:51:54.095Z,17.60
2017-11-23T00:54:23.439Z,18.17
2017-11-23T00:56:51.686Z,26.90
2017-11-23T00:59:19.923Z,12.63
2017-11-23T01:01:48.200Z,17.83
2017-11-23T01:04:16.447Z,21.43
2017-11-23T01:06:44.705Z,14.97
2017-11-23T01:09:12.980Z,20.93
2017-11-23T01:11:41.230Z,22.20
2017-11-23T01:14:09.471Z,16.93
2017-11-23T01:16:37.788Z,15.47
2017-11-23T01:19:06.028Z,24.57
2017-11-23T01:21:34.275Z,16.80
2017-11-23T01:24:02.544Z,21.43
2017-11-23T01:26:30.788Z,18.40
2017-11-23T01:28:59.798Z,19.47
2017-11-23T01:31:28.067Z,21.70
2017-11-23T01:33:56.306Z,21.10
2017-11-23T01:36:24.919Z,23.77
2017-11-23T01:38:54.255Z,18.10
2017-11-23T01:41:22.495Z,8.77
2017-11-23T01:43:50.733Z,18.33
2017-11-23T01:46:18.994Z,13.63
2017-11-23T01:48:47.239Z,18.37
2017-11-23T01:51:15.496Z,20.00
2017-11-23T01:53:44.524Z,24.53
2017-11-23T01:56:12.782Z,16.87
2017-11-23T01:58:41.015Z,13.23
2017-11-23T02:01:09.323Z,22.03
2017-11-23T02:03:38.339Z,23.43
2017-11-23T02:06:06.583Z,19.13
2017-11-23T02:08:34.859Z,18.90
2017-11-23T02:11:03.881Z,21.27
2017-11-23T02:13:32.131Z,21.07
2017-11-23T02:16:01.163Z,25.50
2017-11-23T02:18:29.415Z,24.83
2017-11-23T02:20:57.655Z,17.47
2017-11-23T02:23:26.318Z,17.20
2017-11-23T02:25:54.555Z,14.17
2017-11-23T02:28:22.843Z,18.47
2017-11-23T02:30:51.472Z,15.57
2017-11-23T02:33:19.712Z,21.10
2017-11-23T02:35:48.163Z,12.03
2017-11-23T02:38:17.487Z,17.93
2017-11-23T02:40:45.719Z,14.13
2017-11-23T02:43:13.965Z,14.43
2017-11-23T02:45:42.635Z,12.60
2017-11-23T02:48:10.876Z,16.13
2017-11-23T02:50:39.112Z,16.03
2017-11-23T02:53:07.379Z,15.10
2017-11-23T02:55:35.619Z,19.93
2017-11-23T02:58:03.862Z,16.40
2017-11-23T03:00:32.126Z,15.27
2017-11-23T03:03:00.366Z,20.67
2017-11-23T03:05:28.616Z,17.60
2017-11-23T03:07:57.277Z,15.40
2017-11-23T03:10:25.524Z,16.80
2017-11-23T03:12:53.758Z,22.07
2017-11-23T03:15:22.215Z,16.90
2017-11-23T03:17:50.468Z,14.97
2017-11-23T03:20:18.698Z,16.67
2017-11-23T03:22:47.728Z,14.60
2017-11-23T03:25:15.978Z,12.80
2017-11-23T03:27:44.230Z,15.57
2017-11-23T03:30:12.861Z,12.00
2017-11-23T03:32:41.090Z,13.80
2017-11-23T03:35:09.335Z,14.13
2017-11-23T03:37:37.686Z,15.43
2017-11-23T03:40:06.187Z,17.40
2017-11-23T03:42:34.431Z,21.20
2017-11-23T03:45:02.710Z,14.63
2017-11-23T03:47:30.943Z,11.57
2017-11-23T03:49:59.178Z,12.63
2017-11-23T03:52:27.654Z,15.53
2017-11-23T03:54:55.900Z,17.03
2017-11-23T03:57:24.139Z,13.60
2017-11-23T03:59:52.404Z,14.30
2017-11-23T04:02:20.640Z,11.63
2017-11-23T04:04:48.887Z,18.40
2017-11-23T04:07:17.928Z,16.03
2017-11-23T04:09:46.167Z,13.50
2017-11-23T04:12:14.412Z,15.53
2017-11-23T04:14:43.689Z,15.07
2017-11-23T04:17:11.924Z,18.33
2017-11-23T04:19:40.179Z,17.17
2017-11-23T04:22:08.829Z,19.03
2017-11-23T04:24:37.079Z,19.73
2017-11-23T04:27:05.318Z,11.33
2017-11-23T04:29:33.634Z,14.87
2017-11-23T04:32:01.875Z,15.10
2017-11-23T04:34:30.124Z,18.60
2017-11-23T04:36:58.670Z,17.97
2017-11-23T04:39:26.912Z,19.80
2017-11-23T04:41:56.607Z,26.87
2017-11-23T04:44:24.878Z,19.40
2017-11-23T04:46:53.122Z,18.80
2017-11-23T04:49:21.362Z,22.33
2017-11-23T04:51:49.635Z,24.37
2017-11-23T04:54:18.646Z,19.50
2017-11-23T04:56:46.897Z,27.13
2017-11-23T04:59:15.332Z,20.37
2017-11-23T05:01:43.572Z,13.90
2017-11-23T05:04:11.815Z,20.47
2017-11-23T05:06:40.087Z,26.13
2017-11-23T05:09:08.463Z,18.30
2017-11-23T05:11:36.711Z,19.77
2017-11-23T05:14:04.979Z,18.73
2017-11-23T05:16:33.223Z,22.27
2017-11-23T05:19:01.467Z,20.37
2017-11-23T05:21:29.926Z,21.27
2017-11-23T05:23:58.172Z,18.43
2017-11-23T05:26:26.494Z,24.70
2017-11-23T05:28:54.742Z,29.23
2017-11-23T05:31:22.988Z,24.90
2017-11-23T05:33:51.266Z,31.60
2017-11-23T05:36:20.300Z,28.73
2017-11-23T05:38:48.540Z,30.03
2017-11-23T05:41:17.558Z,20.67
2017-11-23T05:43:46.575Z,18.17
2017-11-23T05:46:14.820Z,24.90
2017-11-23T05:48:43.070Z,20.60
2017-11-23T05:51:11.351Z,22.50
2017-11-23T05:53:40.358Z,34.97
2017-11-23T05:56:08.607Z,30.90
2017-11-23T05:58:36.886Z,19.77
2017-11-23T06:01:05.176Z,27.03
2017-11-23T06:03:34.194Z,19.23
2017-11-23T06:06:02.614Z,20.97
2017-11-23T06:08:30.847Z,45.87
2017-11-23T06:10:59.266Z,20.07
2017-11-23T06:13:27.538Z,22.93
2017-11-23T06:15:55.788Z,23.67
2017-11-23T06:18:24.037Z,29.00
2017-11-23T06:20:52.304Z,31.23
2017-11-23T06:23:20.648Z,27.00
2017-11-23T06:25:48.912Z,29.30
2017-11-23T06:28:17.237Z,25.63
2017-11-23T06:30:45.501Z,25.53
2017-11-23T06:33:13.723Z,19.70
2017-11-23T06:35:41.999Z,17.30
2017-11-23T06:38:10.248Z,20.60
2017-11-23T06:40:39.259Z,20.13
2017-11-23T06:43:07.523Z,23.23
2017-11-23T06:45:36.039Z,23.23
2017-11-23T06:48:04.283Z,28.23
2017-11-23T06:50:32.612Z,21.60
2017-11-23T06:53:00.851Z,25.30
2017-11-23T06:55:29.096Z,30.23
2017-11-23T06:57:57.366Z,27.30
2017-11-23T07:00:25.608Z,26.50
2017-11-23T07:02:53.846Z,40.67
2017-11-23T07:05:22.119Z,28.13
2017-11-23T07:07:51.134Z,30.73
2017-11-23T07:10:19.379Z,37.07
2017-11-23T07:12:47.908Z,40.57
2017-11-23T07:15:16.155Z,58.20
2017-11-23T07:17:50.190Z,56.93
2017-11-23T07:20:18.435Z,44.43
2017-11-23T07:22:46.683Z,42.30
2017-11-23T07:25:16.872Z,38.63
2017-11-23T07:27:45.107Z,42.83
2017-11-23T07:30:13.351Z,41.83
2017-11-23T07:32:41.818Z,47.70
2017-11-23T07:35:10.061Z,38.87
2017-11-23T07:37:38.767Z,39.63
2017-11-23T07:40:07.044Z,39.57
2017-11-23T07:42:35.291Z,35.53
2017-11-23T07:45:03.536Z,33.27
2017-11-23T07:47:32.880Z,31.37
2017-11-23T07:50:01.121Z,38.20
2017-11-23T07:52:29.367Z,42.47
2017-11-23T07:54:57.946Z,34.80
2017-11-23T07:57:26.187Z,33.30
2017-11-23T07:59:54.437Z,32.73
2017-11-23T08:02:23.469Z,31.87
2017-11-23T08:04:51.716Z,38.80
2017-11-23T08:07:19.961Z,26.93
2017-11-23T08:09:48.235Z,27.60
2017-11-23T08:12:16.483Z,25.63
2017-11-23T08:14:44.743Z,37.20
2017-11-23T08:17:13.687Z,29.27
2017-11-23T08:19:41.946Z,27.40
2017-11-23T08:22:10.182Z,29.70
2017-11-23T08:24:38.458Z,27.00
2017-11-23T08:27:06.702Z,32.50
2017-11-23T08:29:34.948Z,30.20
2017-11-23T08:32:03.224Z,29.50
2017-11-23T08:34:31.468Z,38.53
2017-11-23T08:36:59.777Z,26.13
2017-11-23T08:39:28.243Z,28.90
2017-11-23T08:41:56.499Z,28.90
2017-11-23T08:44:24.745Z,26.70
2017-11-23T08:46:53.782Z,32.67
2017-11-23T08:49:22.334Z,26.53
2017-11-23T08:51:51.354Z,18.83
2017-11-23T08:54:19.628Z,15.37
2017-11-23T08:56:47.871Z,20.40
2017-11-23T08:59:16.885Z,21.07
2017-11-23T09:01:47.138Z,26.67
2017-11-23T09:04:15.420Z,25.20
2017-11-23T09:06:43.804Z,25.00
2017-11-23T09:09:12.096Z,20.80
2017-11-23T09:11:40.342Z,24.37
2017-11-23T09:14:08.587Z,21.60
2017-11-23T09:16:38.801Z,39.80
2017-11-23T09:19:07.806Z,24.27
2017-11-23T09:21:36.818Z,17.60
2017-11-23T09:24:05.519Z,23.50
2017-11-23T09:26:33.779Z,28.13
2017-11-23T09:29:02.024Z,24.93
2017-11-23T09:31:30.310Z,21.60
2017-11-23T09:33:59.319Z,24.87
2017-11-23T09:36:27.567Z,23.70
2017-11-23T09:38:55.871Z,28.53
2017-11-23T09:41:24.147Z,25.27
2017-11-23T09:43:52.400Z,30.23
2017-11-23T09:46:20.988Z,31.53
2017-11-23T09:48:49.250Z,25.10
2017-11-23T09:51:17.646Z,25.27
2017-11-23T09:53:46.681Z,17.30
2017-11-23T09:56:14.923Z,29.23
2017-11-23T09:58:43.167Z,26.53
2017-11-23T10:01:11.443Z,28.60
2017-11-23T10:03:39.687Z,33.43
2017-11-23T10:06:07.940Z,26.30
2017-11-23T10:08:36.590Z,26.80
2017-11-23T10:11:04.854Z,26.53
2017-11-23T10:13:33.877Z,23.93
2017-11-23T10:16:02.155Z,28.30
2017-11-23T10:18:30.411Z,37.07
2017-11-23T10:20:58.665Z,34.47
2017-11-23T10:23:26.927Z,27.10
2017-11-23T10:25:55.185Z,28.13
2017-11-23T10:28:23.431Z,35.57
2017-11-23T10:30:51.877Z,24.10
2017-11-23T10:33:20.121Z,23.33
2017-11-23T10:35:48.439Z,26.50
2017-11-23T10:38:16.708Z,16.90
2017-11-23T10:40:44.951Z,26.30
2017-11-23T10:43:13.203Z,27.33
2017-11-23T10:45:41.545Z,24.87
2017-11-23T10:48:09.785Z,19.03
2017-11-23T10:50:38.030Z,26.50
2017-11-23T10:53:06.863Z,22.23
2017-11-23T10:55:35.114Z,42.73
2017-11-23T10:58:03.362Z,34.27
2017-11-23T11:00:31.643Z,28.60
2017-11-23T11:03:00.668Z,35.00
2017-11-23T11:05:28.994Z,21.80
2017-11-23T11:07:57.255Z,24.03
2017-11-23T11:10:25.502Z,28.10
2017-11-23T11:12:53.750Z,35.83
2017-11-23T11:15:22.581Z,27.87
2017-11-23T11:17:50.887Z,28.23
2017-11-23T11:20:19.135Z,38.60
2017-11-23T11:22:47.415Z,42.03
2017-11-23T11:25:15.668Z,40.23
2017-11-23T11:27:43.923Z,63.67
2017-11-23T11:30:12.971Z,47.20
2017-11-23T11:32:41.224Z,45.43
2017-11-23T11:35:09.472Z,51.83
2017-11-23T11:37:38.947Z,51.77
2017-11-23T11:40:07.263Z,60.30
2017-11-23T11:42:35.515Z,56.33
2017-11-23T11:45:03.793Z,71.77
2017-11-23T11:47:32.835Z,70.00
2017-11-23T11:50:01.135Z,72.03
2017-11-23T11:52:29.410Z,52.33
2017-11-23T11:54:57.792Z,63.13
2017-11-23T11:57:26.187Z,83.10
2017-11-23T11:59:54.650Z,60.47
2017-11-23T12:02:22.903Z,68.10
2017-11-23T12:04:51.327Z,82.50
2017-11-23T12:07:21.568Z,78.83
2017-11-23T12:09:50.604Z,69.80
2017-11-23T12:12:18.867Z,80.10
2017-11-23T12:15:02.083Z,87.97
2017-11-23T12:18:01.679Z,53.40
2017-11-23T12:20:51.041Z,59.97
2017-11-23T12:23:31.010Z,79.73
2017-11-23T12:25:59.499Z,49.27
2017-11-23T12:28:39.663Z,53.13
2017-11-23T12:31:08.002Z,45.43
2017-11-23T12:33:36.248Z,59.30
2017-11-23T12:36:04.598Z,58.77
2017-11-23T12:38:32.875Z,53.27
2017-11-23T12:41:01.134Z,49.07
2017-11-23T12:43:30.440Z,62.23
2017-11-23T12:45:59.847Z,52.63
2017-11-23T12:48:28.214Z,59.33
2017-11-23T12:50:56.516Z,43.50
2017-11-23T12:53:24.911Z,63.00
2017-11-23T12:55:53.616Z,63.93
2017-11-23T12:58:21.999Z,63.37
2017-11-23T13:00:50.284Z,63.17
2017-11-23T13:03:18.755Z,75.40
2017-11-23T13:05:47.030Z,66.73
2017-11-23T13:08:15.292Z,46.20
2017-11-23T13:10:43.550Z,60.77
2017-11-23T13:13:11.803Z,53.33
2017-11-23T13:15:40.326Z,51.20
2017-11-23T13:18:08.571Z,60.00
2017-11-23T13:20:37.011Z,40.73
2017-11-23T13:23:05.319Z,24.77
2017-11-23T13:25:34.424Z,16.10
2017-11-23T13:28:02.679Z,16.77
2017-11-23T13:30:31.724Z,22.67
2017-11-23T13:33:00.117Z,8.20
2017-11-23T13:35:28.359Z,10.40
2017-11-23T13:37:56.973Z,14.10
2017-11-23T13:40:25.289Z,4.67
2017-11-23T13:42:54.886Z,5.57
2017-11-23T13:45:24.208Z,2.97
2017-11-23T13:47:52.468Z,6.77
2017-11-23T13:50:20.715Z,4.70
2017-11-23T13:52:48.975Z,6.00
2017-11-23T13:55:17.234Z,12.30
2017-11-23T13:57:45.491Z,5.63
2017-11-23T14:00:15.954Z,3.03
2017-11-23T14:02:44.199Z,5.27
2017-11-23T14:05:12.464Z,11.50
2017-11-23T14:07:41.816Z,7.33
2017-11-23T14:10:10.067Z,7.53
2017-11-23T14:12:39.179Z,6.03
2017-11-23T14:15:07.511Z,4.90
2017-11-23T14:17:36.521Z,4.40
2017-11-23T14:20:05.526Z,3.90
2017-11-23T14:22:35.201Z,10.77
2017-11-23T14:25:03.471Z,4.20
2017-11-23T14:27:31.899Z,3.50
2017-11-23T14:30:00.175Z,9.60
2017-11-23T14:32:28.670Z,3.10
2017-11-23T14:34:56.908Z,6.73
2017-11-23T14:37:26.071Z,5.57
2017-11-23T14:39:54.309Z,5.20
2017-11-23T14:42:34.359Z,8.30
2017-11-23T14:45:02.612Z,5.23
2017-11-23T14:47:30.856Z,3.90
2017-11-23T14:49:59.139Z,10.30
2017-11-23T14:52:29.459Z,10.00
2017-11-23T14:54:57.721Z,8.00
2017-11-23T14:57:26.443Z,7.80
2017-11-23T14:59:54.911Z,12.83
2017-11-23T15:02:23.156Z,7.20
2017-11-23T15:04:51.495Z,7.83
2017-11-23T15:07:20.550Z,6.03
2017-11-23T15:09:48.815Z,9.37
2017-11-23T15:12:17.103Z,13.80
2017-11-23T15:14:45.343Z,6.07
2017-11-23T15:17:13.656Z,8.80
2017-11-23T15:19:41.983Z,8.10
2017-11-23T15:22:10.509Z,8.40
2017-11-23T15:24:39.126Z,11.77
2017-11-23T15:27:08.076Z,8.77
2017-11-23T15:29:36.331Z,16.17
2017-11-23T15:32:04.676Z,40.03
2017-11-23T15:34:33.715Z,15.70
2017-11-23T15:37:02.438Z,4.20
2017-11-23T15:39:31.739Z,5.10
2017-11-23T15:42:00.244Z,14.20
2017-11-23T15:44:29.595Z,3.77
2017-11-23T15:46:57.852Z,11.50
2017-11-23T15:49:26.863Z,9.53
2017-11-23T15:51:55.154Z,13.10
2017-11-23T15:54:23.452Z,8.33
2017-11-23T15:56:52.470Z,6.80
2017-11-23T15:59:21.554Z,3.00
2017-11-23T16:01:51.810Z,14.33
2017-11-23T16:04:20.125Z,11.70
2017-11-23T16:06:48.401Z,16.53
2017-11-23T16:09:16.828Z,8.60
2017-11-23T16:11:46.017Z,13.20
2017-11-23T16:14:14.271Z,12.37
2017-11-23T16:16:42.732Z,6.50
2017-11-23T16:19:11.060Z,9.70
2017-11-23T16:21:39.346Z,11.93
2017-11-23T16:24:07.675Z,11.13
2017-11-23T16:26:35.951Z,10.87
2017-11-23T16:29:04.227Z,5.97
2017-11-23T16:31:32.509Z,7.30
2017-11-23T16:34:01.120Z,12.67
2017-11-23T16:36:45.169Z,11.33
2017-11-23T16:39:14.232Z,8.10
2017-11-23T16:42:02.275Z,6.97
2017-11-23T16:44:36.127Z,14.27
2017-11-23T16:47:09.988Z,14.00
2017-11-23T16:49:42.452Z,7.43
2017-11-23T16:52:27.476Z,9.93
2017-11-23T16:55:01.325Z,8.27
2017-11-23T16:57:44.442Z,8.63
2017-11-23T17:00:33.714Z,6.37
2017-11-23T17:03:18.619Z,7.57
2017-11-23T17:06:03.657Z,8.17
2017-11-23T17:08:39.521Z,11.23
2017-11-23T17:11:13.504Z,5.07
2017-11-23T17:13:47.345Z,25.27
2017-11-23T17:16:35.495Z,13.57
2017-11-23T17:19:09.527Z,10.03
2017-11-23T17:21:40.947Z,16.83
2017-11-23T17:24:09.189Z,12.57
2017-11-23T17:26:37.440Z,12.97
2017-11-23T17:29:05.933Z,12.10
2017-11-23T17:31:34.928Z,8.93
2017-11-23T17:34:04.259Z,11.07
2017-11-23T17:36:32.607Z,11.53
2017-11-23T17:39:01.683Z,93.40
2017-11-23T17:41:29.948Z,19.93
2017-11-23T17:44:00.276Z,13.50
2017-11-23T17:46:29.748Z,9.77
2017-11-23T17:48:58.138Z,6.60
2017-11-23T17:51:26.847Z,12.43
2017-11-23T17:53:55.868Z,19.80
2017-11-23T17:56:24.199Z,11.53
2017-11-23T17:58:52.602Z,7.20
2017-11-23T18:01:21.628Z,16.03
2017-11-23T18:03:49.954Z,11.23
2017-11-23T18:06:18.487Z,14.87
2017-11-23T18:08:46.880Z,12.20
2017-11-23T19:33:19.341Z,13.17
2017-11-23T19:35:49.783Z,11.40
2017-11-23T19:38:20.032Z,12.33
2017-11-23T19:40:50.235Z,10.53
2017-11-23T19:43:20.444Z,8.30
2017-11-23T19:45:48.854Z,12.83
2017-11-23T19:48:18.458Z,21.03
2017-11-23T19:50:47.764Z,14.90
2017-11-23T19:53:16.935Z,18.97
2017-11-23T19:55:45.419Z,15.50
2017-11-23T19:58:13.795Z,14.07
2017-11-23T20:00:42.199Z,11.80
2017-11-23T20:03:12.386Z,8.90
2017-11-23T20:05:40.795Z,12.10
2017-11-23T20:08:11.015Z,16.03
2017-11-23T20:10:40.060Z,11.00
2017-11-23T20:13:08.470Z,9.97
2017-11-23T20:15:36.831Z,9.90
2017-11-23T20:18:06.055Z,12.23
2017-11-23T20:20:34.424Z,15.47
2017-11-23T20:23:02.823Z,11.47
2017-11-23T20:25:31.996Z,12.47
2017-11-23T20:28:00.230Z,14.73
2017-11-23T20:30:29.531Z,18.10
2017-11-23T20:32:57.868Z,13.67
2017-11-23T20:35:26.247Z,17.47
2017-11-23T20:37:54.847Z,13.90
2017-11-23T20:40:23.342Z,27.13
2017-11-23T20:42:51.678Z,9.40
2017-11-23T20:45:20.088Z,13.53
2017-11-23T20:47:48.444Z,17.73
2017-11-23T20:50:17.086Z,19.20
2017-11-23T20:52:46.533Z,20.57
2017-11-23T20:55:15.760Z,13.43
2017-11-23T20:57:44.780Z,18.37
2017-11-23T21:00:14.105Z,16.37
2017-11-23T21:02:44.599Z,12.20
2017-11-23T21:05:13.629Z,21.57
2017-11-23T21:07:41.956Z,16.90
2017-11-23T21:10:10.973Z,13.60
2017-11-23T21:12:40.213Z,10.77
2017-11-23T21:15:09.547Z,16.97
2017-11-23T21:17:39.743Z,15.10
2017-11-23T21:20:08.117Z,16.97
2017-11-23T21:22:37.800Z,14.93
2017-11-23T21:25:06.319Z,21.77
2017-11-23T21:27:34.976Z,12.17
2017-11-23T21:30:07.260Z,18.80
2017-11-23T21:32:39.570Z,10.70
2017-11-23T21:35:09.787Z,12.10
2017-11-23T21:37:40.121Z,18.20
2017-11-23T21:40:09.592Z,12.90
2017-11-23T21:42:38.174Z,13.90
2017-11-23T21:45:06.656Z,13.10
2017-11-23T21:47:35.065Z,25.13
2017-11-23T21:50:04.216Z,19.67
2017-11-23T21:52:32.861Z,16.30
2017-11-23T21:55:01.167Z,16.03
2017-11-23T21:57:29.487Z,14.93
2017-11-23T22:00:00.696Z,15.03
2017-11-23T22:02:30.329Z,18.93
2017-11-23T22:04:58.973Z,17.20
2017-11-23T22:07:27.402Z,25.43
2017-11-23T22:09:55.883Z,14.77
2017-11-23T22:12:24.421Z,17.03
2017-11-23T22:14:52.726Z,15.37
2017-11-23T22:17:21.185Z,13.40
2017-11-23T22:19:49.496Z,17.23
2017-11-23T22:22:17.913Z,14.10
2017-11-23T22:24:46.434Z,13.83
2017-11-23T22:27:14.817Z,14.90
2017-11-23T22:29:43.105Z,14.30
2017-11-23T22:32:12.445Z,13.90
2017-11-23T22:34:41.664Z,13.70
2017-11-23T22:37:09.993Z,15.77
2017-11-23T22:39:38.388Z,14.83
2017-11-23T22:42:08.644Z,18.53
2017-11-23T22:44:36.967Z,13.33
2017-11-23T22:47:05.433Z,11.93
2017-11-23T22:49:33.727Z,11.83
2017-11-23T22:52:01.988Z,22.93
2017-11-23T22:54:31.441Z,10.83
2017-11-23T22:56:59.984Z,8.30
2017-11-23T22:59:28.223Z,11.97
2017-11-23T23:01:56.496Z,8.20
2017-11-23T23:04:24.749Z,7.00
2017-11-23T23:06:53.608Z,10.23
2017-11-23T23:09:22.367Z,7.57
2017-11-23T23:11:50.656Z,7.87
2017-11-23T23:14:18.916Z,15.10
2017-11-23T23:16:47.223Z,7.70
2017-11-23T23:19:16.469Z,10.27
2017-11-23T23:21:44.748Z,6.60
2017-11-23T23:24:13.028Z,8.00
2017-11-23T23:26:41.316Z,5.30
2017-11-23T23:29:11.814Z,10.43
2017-11-23T23:31:41.171Z,10.40
2017-11-23T23:34:09.461Z,7.57
2017-11-23T23:36:37.726Z,9.20
2017-11-23T23:39:05.996Z,6.93
2017-11-23T23:41:34.288Z,8.80
2017-11-23T23:44:02.659Z,7.77
2017-11-23T23:46:31.079Z,8.20
2017-11-23T23:49:01.270Z,11.20
2017-11-23T23:51:29.522Z,6.67
2017-11-23T23:53:57.851Z,5.30
2017-11-23T23:56:26.111Z,7.70
2017-11-23T23:58:54.518Z,8.90
